sensor_id;sensor_type;location;lat;lon;timestamp;P1;durP1;ratioP1;P2;durP2;ratioP2
4529;SDS011;2277;51.626;7.516;2023-04-25T00:01:59;3.60;;;3.30;;
4529;SDS011;2277;51.626;7.516;2023-04-25T00:04:24;4.53;;;4.07;;
4529;SDS011;2277;51.626;7.516;2023-04-25T00:06:52;4.57;;;4.17;;
4529;SDS011;2277;51.626;7.516;2023-04-25T00:09:25;4.20;;;2.93;;
4529;SDS011;2277;51.626;7.516;2023-04-25T00:11:52;3.53;;;3.23;;
4529;SDS011;2277;51.626;7.516;2023-04-25T00:14:18;8.00;;;5.43;;
4529;SDS011;2277;51.626;7.516;2023-04-25T00:16:44;5.07;;;3.37;;
4529;SDS011;2277;51.626;7.516;2023-04-25T00:19:09;4.63;;;4.00;;
4529;SDS011;2277;51.626;7.516;2023-04-25T00:21:35;7.67;;;4.50;;
4529;SDS011;2277;51.626;7.516;2023-04-25T00:24:05;3.30;;;2.87;;
4529;SDS011;2277;51.626;7.516;2023-04-25T00:26:31;4.40;;;3.47;;
4529;SDS011;2277;51.626;7.516;2023-04-25T00:28:58;4.67;;;4.23;;
4529;SDS011;2277;51.626;7.516;2023-04-25T00:31:23;6.07;;;4.57;;
4529;SDS011;2277;51.626;7.516;2023-04-25T00:33:49;13.47;;;4.23;;
4529;SDS011;2277;51.626;7.516;2023-04-25T00:36:15;5.07;;;4.30;;
4529;SDS011;2277;51.626;7.516;2023-04-25T00:38:42;13.83;;;3.53;;
4529;SDS011;2277;51.626;7.516;2023-04-25T00:41:07;6.10;;;3.73;;
4529;SDS011;2277;51.626;7.516;2023-04-25T00:43:33;8.33;;;4.00;;
4529;SDS011;2277;51.626;7.516;2023-04-25T00:46:00;11.43;;;4.30;;
4529;SDS011;2277;51.626;7.516;2023-04-25T00:48:27;4.50;;;4.00;;
4529;SDS011;2277;51.626;7.516;2023-04-25T00:50:54;6.03;;;2.30;;
4529;SDS011;2277;51.626;7.516;2023-04-25T00:53:21;8.10;;;6.10;;
4529;SDS011;2277;51.626;7.516;2023-04-25T00:55:47;4.53;;;3.97;;
4529;SDS011;2277;51.626;7.516;2023-04-25T00:58:15;5.77;;;4.47;;
4529;SDS011;2277;51.626;7.516;2023-04-25T01:00:42;4.13;;;3.73;;
4529;SDS011;2277;51.626;7.516;2023-04-25T01:03:08;3.90;;;3.27;;
4529;SDS011;2277;51.626;7.516;2023-04-25T01:05:35;3.70;;;3.30;;
4529;SDS011;2277;51.626;7.516;2023-04-25T01:08:00;5.13;;;2.93;;
4529;SDS011;2277;51.626;7.516;2023-04-25T01:10:26;3.60;;;2.80;;
4529;SDS011;2277;51.626;7.516;2023-04-25T01:12:52;3.43;;;3.13;;
4529;SDS011;2277;51.626;7.516;2023-04-25T01:15:18;3.83;;;3.50;;
4529;SDS011;2277;51.626;7.516;2023-04-25T01:17:43;6.70;;;4.77;;
4529;SDS011;2277;51.626;7.516;2023-04-25T01:20:09;3.30;;;3.00;;
4529;SDS011;2277;51.626;7.516;2023-04-25T01:22:36;3.87;;;3.47;;
4529;SDS011;2277;51.626;7.516;2023-04-25T01:25:03;7.23;;;3.17;;
4529;SDS011;2277;51.626;7.516;2023-04-25T01:27:29;4.23;;;3.83;;
4529;SDS011;2277;51.626;7.516;2023-04-25T01:29:55;3.20;;;2.47;;
4529;SDS011;2277;51.626;7.516;2023-04-25T01:32:22;5.03;;;3.87;;
4529;SDS011;2277;51.626;7.516;2023-04-25T01:34:48;4.60;;;3.53;;
4529;SDS011;2277;51.626;7.516;2023-04-25T01:37:14;2.50;;;2.10;;
4529;SDS011;2277;51.626;7.516;2023-04-25T01:39:41;5.30;;;3.73;;
4529;SDS011;2277;51.626;7.516;2023-04-25T01:42:07;5.87;;;5.33;;
4529;SDS011;2277;51.626;7.516;2023-04-25T01:44:32;3.23;;;2.93;;
4529;SDS011;2277;51.626;7.516;2023-04-25T01:46:58;7.13;;;3.50;;
4529;SDS011;2277;51.626;7.516;2023-04-25T01:49:24;4.23;;;2.80;;
4529;SDS011;2277;51.626;7.516;2023-04-25T01:51:50;5.30;;;2.93;;
4529;SDS011;2277;51.626;7.516;2023-04-25T01:54:16;3.40;;;2.53;;
4529;SDS011;2277;51.626;7.516;2023-04-25T01:56:43;6.57;;;3.97;;
4529;SDS011;2277;51.626;7.516;2023-04-25T01:59:08;4.03;;;3.20;;
4529;SDS011;2277;51.626;7.516;2023-04-25T02:01:34;3.53;;;3.23;;
4529;SDS011;2277;51.626;7.516;2023-04-25T02:04:00;2.87;;;2.67;;
4529;SDS011;2277;51.626;7.516;2023-04-25T02:06:26;4.17;;;2.80;;
4529;SDS011;2277;51.626;7.516;2023-04-25T02:08:51;7.47;;;4.67;;
4529;SDS011;2277;51.626;7.516;2023-04-25T02:11:18;6.03;;;5.53;;
4529;SDS011;2277;51.626;7.516;2023-04-25T02:13:44;6.83;;;3.40;;
4529;SDS011;2277;51.626;7.516;2023-04-25T02:16:09;3.77;;;3.43;;
4529;SDS011;2277;51.626;7.516;2023-04-25T02:18:35;4.93;;;3.20;;
4529;SDS011;2277;51.626;7.516;2023-04-25T02:21:02;6.63;;;2.57;;
4529;SDS011;2277;51.626;7.516;2023-04-25T02:23:28;9.80;;;2.90;;
4529;SDS011;2277;51.626;7.516;2023-04-25T02:25:53;7.93;;;4.03;;
4529;SDS011;2277;51.626;7.516;2023-04-25T02:28:20;5.23;;;3.47;;
4529;SDS011;2277;51.626;7.516;2023-04-25T02:30:46;4.07;;;2.70;;
4529;SDS011;2277;51.626;7.516;2023-04-25T02:33:12;4.43;;;2.43;;
4529;SDS011;2277;51.626;7.516;2023-04-25T02:35:37;3.43;;;2.40;;
4529;SDS011;2277;51.626;7.516;2023-04-25T02:38:03;2.93;;;2.30;;
4529;SDS011;2277;51.626;7.516;2023-04-25T02:40:29;6.40;;;2.20;;
4529;SDS011;2277;51.626;7.516;2023-04-25T02:42:55;5.57;;;3.43;;
4529;SDS011;2277;51.626;7.516;2023-04-25T02:45:21;3.40;;;3.10;;
4529;SDS011;2277;51.626;7.516;2023-04-25T02:47:46;4.80;;;2.67;;
4529;SDS011;2277;51.626;7.516;2023-04-25T02:50:12;3.40;;;2.87;;
4529;SDS011;2277;51.626;7.516;2023-04-25T02:52:37;2.67;;;2.47;;
4529;SDS011;2277;51.626;7.516;2023-04-25T02:55:03;3.23;;;2.93;;
4529;SDS011;2277;51.626;7.516;2023-04-25T02:57:29;5.40;;;4.20;;
4529;SDS011;2277;51.626;7.516;2023-04-25T02:59:54;3.53;;;2.67;;
4529;SDS011;2277;51.626;7.516;2023-04-25T03:02:20;3.30;;;3.00;;
4529;SDS011;2277;51.626;7.516;2023-04-25T03:04:45;3.57;;;2.90;;
4529;SDS011;2277;51.626;7.516;2023-04-25T03:07:11;6.93;;;4.43;;
4529;SDS011;2277;51.626;7.516;2023-04-25T03:09:37;7.53;;;2.50;;
4529;SDS011;2277;51.626;7.516;2023-04-25T03:12:03;2.50;;;2.30;;
4529;SDS011;2277;51.626;7.516;2023-04-25T03:14:28;4.73;;;3.57;;
4529;SDS011;2277;51.626;7.516;2023-04-25T03:16:54;5.57;;;2.17;;
4529;SDS011;2277;51.626;7.516;2023-04-25T03:19:20;4.80;;;3.43;;
4529;SDS011;2277;51.626;7.516;2023-04-25T03:21:45;8.40;;;4.17;;
4529;SDS011;2277;51.626;7.516;2023-04-25T03:24:11;4.10;;;2.97;;
4529;SDS011;2277;51.626;7.516;2023-04-25T03:26:37;4.03;;;2.70;;
4529;SDS011;2277;51.626;7.516;2023-04-25T03:29:02;4.43;;;2.93;;
4529;SDS011;2277;51.626;7.516;2023-04-25T03:31:28;10.60;;;3.83;;
4529;SDS011;2277;51.626;7.516;2023-04-25T03:33:54;4.47;;;3.17;;
4529;SDS011;2277;51.626;7.516;2023-04-25T03:36:19;7.10;;;3.40;;
4529;SDS011;2277;51.626;7.516;2023-04-25T03:38:45;3.53;;;3.23;;
4529;SDS011;2277;51.626;7.516;2023-04-25T03:41:11;2.50;;;2.20;;
4529;SDS011;2277;51.626;7.516;2023-04-25T03:43:36;5.57;;;3.40;;
4529;SDS011;2277;51.626;7.516;2023-04-25T03:46:02;14.80;;;4.00;;
4529;SDS011;2277;51.626;7.516;2023-04-25T03:48:28;3.77;;;3.13;;
4529;SDS011;2277;51.626;7.516;2023-04-25T03:50:54;3.30;;;3.00;;
4529;SDS011;2277;51.626;7.516;2023-04-25T03:53:20;9.40;;;3.00;;
4529;SDS011;2277;51.626;7.516;2023-04-25T03:55:45;4.13;;;2.40;;
4529;SDS011;2277;51.626;7.516;2023-04-25T03:58:11;3.77;;;2.57;;
4529;SDS011;2277;51.626;7.516;2023-04-25T04:00:36;5.00;;;2.80;;
4529;SDS011;2277;51.626;7.516;2023-04-25T04:03:02;4.33;;;3.50;;
4529;SDS011;2277;51.626;7.516;2023-04-25T04:05:28;3.73;;;3.23;;
4529;SDS011;2277;51.626;7.516;2023-04-25T04:07:54;4.80;;;3.17;;
4529;SDS011;2277;51.626;7.516;2023-04-25T04:10:20;10.53;;;5.20;;
4529;SDS011;2277;51.626;7.516;2023-04-25T04:12:46;5.80;;;5.20;;
4529;SDS011;2277;51.626;7.516;2023-04-25T04:15:12;4.80;;;2.33;;
4529;SDS011;2277;51.626;7.516;2023-04-25T04:17:38;6.90;;;3.20;;
4529;SDS011;2277;51.626;7.516;2023-04-25T04:20:04;3.70;;;3.40;;
4529;SDS011;2277;51.626;7.516;2023-04-25T04:22:31;3.87;;;2.60;;
4529;SDS011;2277;51.626;7.516;2023-04-25T04:24:57;9.63;;;4.00;;
4529;SDS011;2277;51.626;7.516;2023-04-25T04:27:22;4.23;;;3.17;;
4529;SDS011;2277;51.626;7.516;2023-04-25T04:29:48;5.13;;;3.00;;
4529;SDS011;2277;51.626;7.516;2023-04-25T04:32:15;4.63;;;3.77;;
4529;SDS011;2277;51.626;7.516;2023-04-25T04:34:42;11.30;;;5.10;;
4529;SDS011;2277;51.626;7.516;2023-04-25T04:37:07;3.00;;;2.73;;
4529;SDS011;2277;51.626;7.516;2023-04-25T04:39:34;2.50;;;2.10;;
4529;SDS011;2277;51.626;7.516;2023-04-25T04:42:00;4.33;;;2.67;;
4529;SDS011;2277;51.626;7.516;2023-04-25T04:44:30;2.70;;;2.50;;
4529;SDS011;2277;51.626;7.516;2023-04-25T04:46:57;4.80;;;3.30;;
4529;SDS011;2277;51.626;7.516;2023-04-25T04:49:23;7.37;;;3.00;;
4529;SDS011;2277;51.626;7.516;2023-04-25T04:51:49;2.87;;;2.30;;
4529;SDS011;2277;51.626;7.516;2023-04-25T04:54:15;3.20;;;1.90;;
4529;SDS011;2277;51.626;7.516;2023-04-25T04:56:40;2.50;;;2.20;;
4529;SDS011;2277;51.626;7.516;2023-04-25T04:59:06;3.13;;;2.03;;
4529;SDS011;2277;51.626;7.516;2023-04-25T05:01:32;3.53;;;3.00;;
4529;SDS011;2277;51.626;7.516;2023-04-25T05:04:00;3.57;;;3.23;;
4529;SDS011;2277;51.626;7.516;2023-04-25T05:06:27;3.27;;;3.00;;
4529;SDS011;2277;51.626;7.516;2023-04-25T05:08:56;2.60;;;2.40;;
4529;SDS011;2277;51.626;7.516;2023-04-25T05:11:22;2.67;;;2.20;;
4529;SDS011;2277;51.626;7.516;2023-04-25T05:13:49;5.83;;;1.80;;
4529;SDS011;2277;51.626;7.516;2023-04-25T05:16:16;5.40;;;3.17;;
4529;SDS011;2277;51.626;7.516;2023-04-25T05:18:42;3.70;;;2.60;;
4529;SDS011;2277;51.626;7.516;2023-04-25T05:21:07;2.40;;;2.20;;
4529;SDS011;2277;51.626;7.516;2023-04-25T05:23:33;6.17;;;2.47;;
4529;SDS011;2277;51.626;7.516;2023-04-25T05:25:58;3.17;;;2.23;;
4529;SDS011;2277;51.626;7.516;2023-04-25T05:28:24;6.40;;;3.70;;
4529;SDS011;2277;51.626;7.516;2023-04-25T05:30:50;4.30;;;2.80;;
4529;SDS011;2277;51.626;7.516;2023-04-25T05:33:16;3.23;;;2.63;;
4529;SDS011;2277;51.626;7.516;2023-04-25T05:35:41;6.87;;;1.80;;
4529;SDS011;2277;51.626;7.516;2023-04-25T05:38:07;2.53;;;2.10;;
4529;SDS011;2277;51.626;7.516;2023-04-25T05:40:33;3.10;;;2.40;;
4529;SDS011;2277;51.626;7.516;2023-04-25T05:42:58;10.13;;;3.57;;
4529;SDS011;2277;51.626;7.516;2023-04-25T05:45:24;7.90;;;2.73;;
4529;SDS011;2277;51.626;7.516;2023-04-25T05:47:50;2.93;;;2.73;;
4529;SDS011;2277;51.626;7.516;2023-04-25T05:50:15;31.57;;;5.80;;
4529;SDS011;2277;51.626;7.516;2023-04-25T05:52:42;3.00;;;1.83;;
4529;SDS011;2277;51.626;7.516;2023-04-25T05:55:08;3.13;;;2.40;;
4529;SDS011;2277;51.626;7.516;2023-04-25T05:57:34;3.90;;;3.60;;
4529;SDS011;2277;51.626;7.516;2023-04-25T06:00:00;4.10;;;2.30;;
4529;SDS011;2277;51.626;7.516;2023-04-25T06:02:25;2.50;;;2.23;;
4529;SDS011;2277;51.626;7.516;2023-04-25T06:04:51;6.57;;;3.10;;
4529;SDS011;2277;51.626;7.516;2023-04-25T06:07:17;3.23;;;2.20;;
4529;SDS011;2277;51.626;7.516;2023-04-25T06:09:44;5.10;;;3.53;;
4529;SDS011;2277;51.626;7.516;2023-04-25T06:12:10;4.00;;;2.93;;
4529;SDS011;2277;51.626;7.516;2023-04-25T06:14:36;8.77;;;3.17;;
4529;SDS011;2277;51.626;7.516;2023-04-25T06:17:02;2.40;;;2.03;;
4529;SDS011;2277;51.626;7.516;2023-04-25T06:19:35;5.90;;;2.97;;
4529;SDS011;2277;51.626;7.516;2023-04-25T06:22:01;5.70;;;3.00;;
4529;SDS011;2277;51.626;7.516;2023-04-25T06:24:27;4.17;;;2.67;;
4529;SDS011;2277;51.626;7.516;2023-04-25T06:26:52;2.93;;;2.70;;
4529;SDS011;2277;51.626;7.516;2023-04-25T06:29:18;3.33;;;2.50;;
4529;SDS011;2277;51.626;7.516;2023-04-25T06:31:44;3.60;;;3.00;;
4529;SDS011;2277;51.626;7.516;2023-04-25T06:34:10;5.20;;;2.80;;
4529;SDS011;2277;51.626;7.516;2023-04-25T06:36:35;3.40;;;2.60;;
4529;SDS011;2277;51.626;7.516;2023-04-25T06:39:01;3.53;;;2.57;;
4529;SDS011;2277;51.626;7.516;2023-04-25T06:41:27;4.63;;;3.57;;
4529;SDS011;2277;51.626;7.516;2023-04-25T06:43:52;2.80;;;2.60;;
4529;SDS011;2277;51.626;7.516;2023-04-25T06:46:18;4.73;;;3.27;;
4529;SDS011;2277;51.626;7.516;2023-04-25T06:48:43;9.67;;;3.23;;
4529;SDS011;2277;51.626;7.516;2023-04-25T06:51:09;6.30;;;1.93;;
4529;SDS011;2277;51.626;7.516;2023-04-25T06:53:35;8.13;;;2.50;;
4529;SDS011;2277;51.626;7.516;2023-04-25T06:56:01;4.07;;;3.43;;
4529;SDS011;2277;51.626;7.516;2023-04-25T06:58:27;2.00;;;1.60;;
4529;SDS011;2277;51.626;7.516;2023-04-25T07:00:52;10.80;;;2.60;;
4529;SDS011;2277;51.626;7.516;2023-04-25T07:03:18;2.63;;;2.07;;
4529;SDS011;2277;51.626;7.516;2023-04-25T07:05:45;5.37;;;2.50;;
4529;SDS011;2277;51.626;7.516;2023-04-25T07:08:11;8.33;;;4.93;;
4529;SDS011;2277;51.626;7.516;2023-04-25T07:10:36;2.73;;;2.30;;
4529;SDS011;2277;51.626;7.516;2023-04-25T07:13:02;4.33;;;2.30;;
4529;SDS011;2277;51.626;7.516;2023-04-25T07:15:28;3.00;;;2.70;;
4529;SDS011;2277;51.626;7.516;2023-04-25T07:17:54;8.73;;;4.30;;
4529;SDS011;2277;51.626;7.516;2023-04-25T07:20:20;5.30;;;3.53;;
4529;SDS011;2277;51.626;7.516;2023-04-25T07:22:45;2.47;;;2.10;;
4529;SDS011;2277;51.626;7.516;2023-04-25T07:25:11;2.83;;;2.53;;
4529;SDS011;2277;51.626;7.516;2023-04-25T07:27:37;9.77;;;3.10;;
4529;SDS011;2277;51.626;7.516;2023-04-25T07:30:03;10.50;;;4.80;;
4529;SDS011;2277;51.626;7.516;2023-04-25T07:32:29;25.53;;;4.30;;
4529;SDS011;2277;51.626;7.516;2023-04-25T07:34:55;4.60;;;3.17;;
4529;SDS011;2277;51.626;7.516;2023-04-25T07:37:20;3.00;;;2.70;;
4529;SDS011;2277;51.626;7.516;2023-04-25T07:39:46;4.50;;;2.70;;
4529;SDS011;2277;51.626;7.516;2023-04-25T07:42:12;6.23;;;2.93;;
4529;SDS011;2277;51.626;7.516;2023-04-25T07:44:38;2.70;;;1.40;;
4529;SDS011;2277;51.626;7.516;2023-04-25T07:47:07;12.90;;;4.30;;
4529;SDS011;2277;51.626;7.516;2023-04-25T07:49:34;3.87;;;2.33;;
4529;SDS011;2277;51.626;7.516;2023-04-25T07:52:01;4.60;;;2.40;;
4529;SDS011;2277;51.626;7.516;2023-04-25T07:54:27;5.03;;;2.83;;
4529;SDS011;2277;51.626;7.516;2023-04-25T07:56:53;5.23;;;4.30;;
4529;SDS011;2277;51.626;7.516;2023-04-25T07:59:19;4.93;;;3.17;;
4529;SDS011;2277;51.626;7.516;2023-04-25T08:01:45;2.90;;;2.70;;
4529;SDS011;2277;51.626;7.516;2023-04-25T08:04:12;4.33;;;2.30;;
4529;SDS011;2277;51.626;7.516;2023-04-25T08:06:37;7.70;;;4.13;;
4529;SDS011;2277;51.626;7.516;2023-04-25T08:09:03;2.73;;;2.37;;
4529;SDS011;2277;51.626;7.516;2023-04-25T08:11:29;3.80;;;3.17;;
4529;SDS011;2277;51.626;7.516;2023-04-25T08:13:54;4.20;;;2.50;;
4529;SDS011;2277;51.626;7.516;2023-04-25T08:16:20;2.30;;;1.67;;
4529;SDS011;2277;51.626;7.516;2023-04-25T08:18:46;3.07;;;2.73;;
4529;SDS011;2277;51.626;7.516;2023-04-25T08:21:11;2.50;;;2.13;;
4529;SDS011;2277;51.626;7.516;2023-04-25T08:23:37;8.10;;;3.53;;
4529;SDS011;2277;51.626;7.516;2023-04-25T08:26:03;2.33;;;2.10;;
4529;SDS011;2277;51.626;7.516;2023-04-25T08:28:30;6.13;;;2.83;;
4529;SDS011;2277;51.626;7.516;2023-04-25T08:30:56;10.70;;;3.50;;
4529;SDS011;2277;51.626;7.516;2023-04-25T08:33:21;6.70;;;2.00;;
4529;SDS011;2277;51.626;7.516;2023-04-25T08:35:47;3.53;;;2.13;;
4529;SDS011;2277;51.626;7.516;2023-04-25T08:38:13;12.83;;;2.20;;
4529;SDS011;2277;51.626;7.516;2023-04-25T08:40:39;5.73;;;2.90;;
4529;SDS011;2277;51.626;7.516;2023-04-25T08:43:05;3.80;;;1.70;;
4529;SDS011;2277;51.626;7.516;2023-04-25T08:45:36;14.63;;;4.77;;
4529;SDS011;2277;51.626;7.516;2023-04-25T08:48:05;6.93;;;2.60;;
4529;SDS011;2277;51.626;7.516;2023-04-25T08:50:35;1.90;;;1.77;;
4529;SDS011;2277;51.626;7.516;2023-04-25T08:53:04;1.53;;;1.13;;
4529;SDS011;2277;51.626;7.516;2023-04-25T08:55:34;4.93;;;1.90;;
4529;SDS011;2277;51.626;7.516;2023-04-25T08:58:02;1.40;;;1.20;;
4529;SDS011;2277;51.626;7.516;2023-04-25T09:00:29;1.63;;;1.20;;
4529;SDS011;2277;51.626;7.516;2023-04-25T09:02:54;2.70;;;1.90;;
4529;SDS011;2277;51.626;7.516;2023-04-25T09:05:21;2.10;;;1.70;;
4529;SDS011;2277;51.626;7.516;2023-04-25T09:07:48;5.87;;;2.13;;
4529;SDS011;2277;51.626;7.516;2023-04-25T09:10:13;2.27;;;1.40;;
4529;SDS011;2277;51.626;7.516;2023-04-25T09:12:39;2.20;;;1.63;;
4529;SDS011;2277;51.626;7.516;2023-04-25T09:17:34;2.40;;;1.47;;
4529;SDS011;2277;51.626;7.516;2023-04-25T09:20:08;5.47;;;2.17;;
4529;SDS011;2277;51.626;7.516;2023-04-25T09:22:36;2.60;;;1.70;;
4529;SDS011;2277;51.626;7.516;2023-04-25T09:25:04;1.50;;;1.07;;
4529;SDS011;2277;51.626;7.516;2023-04-25T09:27:34;1.70;;;1.50;;
4529;SDS011;2277;51.626;7.516;2023-04-25T09:30:00;3.90;;;2.33;;
4529;SDS011;2277;51.626;7.516;2023-04-25T09:32:27;3.83;;;2.07;;
4529;SDS011;2277;51.626;7.516;2023-04-25T09:34:56;1.43;;;1.30;;
4529;SDS011;2277;51.626;7.516;2023-04-25T09:37:26;2.10;;;1.40;;
4529;SDS011;2277;51.626;7.516;2023-04-25T09:39:54;2.70;;;1.83;;
4529;SDS011;2277;51.626;7.516;2023-04-25T09:42:22;2.37;;;1.70;;
4529;SDS011;2277;51.626;7.516;2023-04-25T09:44:49;5.90;;;2.20;;
4529;SDS011;2277;51.626;7.516;2023-04-25T09:47:17;6.17;;;2.80;;
4529;SDS011;2277;51.626;7.516;2023-04-25T09:49:43;1.83;;;1.40;;
4529;SDS011;2277;51.626;7.516;2023-04-25T09:52:10;3.97;;;1.80;;
4529;SDS011;2277;51.626;7.516;2023-04-25T09:54:40;2.23;;;1.97;;
4529;SDS011;2277;51.626;7.516;2023-04-25T09:57:17;3.60;;;3.03;;
4529;SDS011;2277;51.626;7.516;2023-04-25T09:59:50;2.00;;;1.70;;
4529;SDS011;2277;51.626;7.516;2023-04-25T10:02:21;7.43;;;2.80;;
4529;SDS011;2277;51.626;7.516;2023-04-25T10:04:48;7.73;;;2.50;;
4529;SDS011;2277;51.626;7.516;2023-04-25T10:07:17;1.60;;;1.50;;
4529;SDS011;2277;51.626;7.516;2023-04-25T10:09:44;2.90;;;2.60;;
4529;SDS011;2277;51.626;7.516;2023-04-25T10:12:14;2.50;;;1.53;;
4529;SDS011;2277;51.626;7.516;2023-04-25T10:14:41;3.70;;;1.40;;
4529;SDS011;2277;51.626;7.516;2023-04-25T10:17:08;9.80;;;1.80;;
4529;SDS011;2277;51.626;7.516;2023-04-25T10:19:36;5.77;;;4.43;;
4529;SDS011;2277;51.626;7.516;2023-04-25T10:22:11;8.87;;;4.50;;
4529;SDS011;2277;51.626;7.516;2023-04-25T10:24:42;1.70;;;1.30;;
4529;SDS011;2277;51.626;7.516;2023-04-25T10:27:09;1.60;;;1.17;;
4529;SDS011;2277;51.626;7.516;2023-04-25T10:29:35;4.70;;;3.63;;
4529;SDS011;2277;51.626;7.516;2023-04-25T10:32:01;1.80;;;1.03;;
4529;SDS011;2277;51.626;7.516;2023-04-25T10:34:40;1.50;;;1.00;;
4529;SDS011;2277;51.626;7.516;2023-04-25T10:37:10;2.37;;;1.50;;
4529;SDS011;2277;51.626;7.516;2023-04-25T10:39:37;2.87;;;1.80;;
4529;SDS011;2277;51.626;7.516;2023-04-25T10:42:05;3.33;;;2.20;;
4529;SDS011;2277;51.626;7.516;2023-04-25T10:44:32;5.43;;;2.20;;
4529;SDS011;2277;51.626;7.516;2023-04-25T10:46:59;1.73;;;1.63;;
4529;SDS011;2277;51.626;7.516;2023-04-25T10:49:33;1.40;;;1.07;;
4529;SDS011;2277;51.626;7.516;2023-04-25T10:54:51;1.50;;;1.00;;
4529;SDS011;2277;51.626;7.516;2023-04-25T11:00:17;7.40;;;2.47;;
4529;SDS011;2277;51.626;7.516;2023-04-25T11:02:53;1.60;;;1.00;;
4529;SDS011;2277;51.626;7.516;2023-04-25T11:05:30;1.60;;;1.30;;
4529;SDS011;2277;51.626;7.516;2023-04-25T11:07:58;4.10;;;1.90;;
4529;SDS011;2277;51.626;7.516;2023-04-25T11:10:25;1.77;;;1.17;;
4529;SDS011;2277;51.626;7.516;2023-04-25T11:12:56;9.73;;;2.20;;
4529;SDS011;2277;51.626;7.516;2023-04-25T11:15:22;1.80;;;1.57;;
4529;SDS011;2277;51.626;7.516;2023-04-25T11:17:50;1.60;;;1.33;;
4529;SDS011;2277;51.626;7.516;2023-04-25T11:20:16;1.60;;;1.40;;
4529;SDS011;2277;51.626;7.516;2023-04-25T11:22:42;1.60;;;1.30;;
4529;SDS011;2277;51.626;7.516;2023-04-25T11:25:10;1.67;;;1.30;;
4529;SDS011;2277;51.626;7.516;2023-04-25T11:27:37;1.40;;;1.10;;
4529;SDS011;2277;51.626;7.516;2023-04-25T11:30:24;1.30;;;0.70;;
4529;SDS011;2277;51.626;7.516;2023-04-25T11:32:51;2.33;;;1.30;;
4529;SDS011;2277;51.626;7.516;2023-04-25T11:35:17;1.90;;;1.53;;
4529;SDS011;2277;51.626;7.516;2023-04-25T11:37:44;2.30;;;1.80;;
4529;SDS011;2277;51.626;7.516;2023-04-25T11:40:10;2.17;;;1.53;;
4529;SDS011;2277;51.626;7.516;2023-04-25T11:42:42;2.00;;;1.63;;
4529;SDS011;2277;51.626;7.516;2023-04-25T11:45:09;1.73;;;1.63;;
4529;SDS011;2277;51.626;7.516;2023-04-25T11:47:36;4.30;;;2.93;;
4529;SDS011;2277;51.626;7.516;2023-04-25T11:50:06;3.57;;;3.27;;
4529;SDS011;2277;51.626;7.516;2023-04-25T11:52:45;2.30;;;1.23;;
4529;SDS011;2277;51.626;7.516;2023-04-25T11:55:16;1.27;;;1.17;;
4529;SDS011;2277;51.626;7.516;2023-04-25T11:57:44;3.00;;;0.70;;
4529;SDS011;2277;51.626;7.516;2023-04-25T12:02:40;1.27;;;1.17;;
4529;SDS011;2277;51.626;7.516;2023-04-25T12:05:07;1.50;;;1.30;;
4529;SDS011;2277;51.626;7.516;2023-04-25T12:07:34;1.47;;;1.30;;
4529;SDS011;2277;51.626;7.516;2023-04-25T12:10:04;2.80;;;1.90;;
4529;SDS011;2277;51.626;7.516;2023-04-25T12:12:34;2.20;;;0.80;;
4529;SDS011;2277;51.626;7.516;2023-04-25T12:15:11;4.87;;;1.70;;
4529;SDS011;2277;51.626;7.516;2023-04-25T12:17:44;1.30;;;0.90;;
4529;SDS011;2277;51.626;7.516;2023-04-25T12:20:18;1.40;;;1.00;;
4529;SDS011;2277;51.626;7.516;2023-04-25T12:22:45;1.83;;;1.10;;
4529;SDS011;2277;51.626;7.516;2023-04-25T12:30:55;4.97;;;1.00;;
4529;SDS011;2277;51.626;7.516;2023-04-25T12:33:22;3.67;;;1.10;;
4529;SDS011;2277;51.626;7.516;2023-04-25T12:35:49;2.10;;;1.23;;
4529;SDS011;2277;51.626;7.516;2023-04-25T12:38:24;1.43;;;1.20;;
4529;SDS011;2277;51.626;7.516;2023-04-25T12:40:51;1.30;;;0.80;;
4529;SDS011;2277;51.626;7.516;2023-04-25T12:43:17;3.10;;;0.90;;
4529;SDS011;2277;51.626;7.516;2023-04-25T12:45:43;1.40;;;1.00;;
4529;SDS011;2277;51.626;7.516;2023-04-25T12:48:10;8.23;;;1.03;;
4529;SDS011;2277;51.626;7.516;2023-04-25T12:50:36;1.70;;;1.47;;
4529;SDS011;2277;51.626;7.516;2023-04-25T12:53:01;2.73;;;0.83;;
4529;SDS011;2277;51.626;7.516;2023-04-25T12:55:27;2.10;;;1.67;;
4529;SDS011;2277;51.626;7.516;2023-04-25T12:57:53;1.93;;;1.03;;
4529;SDS011;2277;51.626;7.516;2023-04-25T13:00:18;2.83;;;1.10;;
4529;SDS011;2277;51.626;7.516;2023-04-25T13:02:45;1.30;;;0.90;;
4529;SDS011;2277;51.626;7.516;2023-04-25T13:05:11;1.50;;;1.00;;
4529;SDS011;2277;51.626;7.516;2023-04-25T13:07:37;1.00;;;0.70;;
4529;SDS011;2277;51.626;7.516;2023-04-25T13:10:03;1.30;;;0.90;;
4529;SDS011;2277;51.626;7.516;2023-04-25T13:12:30;1.30;;;1.10;;
4529;SDS011;2277;51.626;7.516;2023-04-25T13:14:56;2.23;;;1.00;;
4529;SDS011;2277;51.626;7.516;2023-04-25T13:17:22;2.90;;;1.00;;
4529;SDS011;2277;51.626;7.516;2023-04-25T13:19:47;3.10;;;1.10;;
4529;SDS011;2277;51.626;7.516;2023-04-25T13:22:13;1.47;;;0.80;;
4529;SDS011;2277;51.626;7.516;2023-04-25T13:24:41;1.20;;;0.90;;
4529;SDS011;2277;51.626;7.516;2023-04-25T13:27:07;2.07;;;1.80;;
4529;SDS011;2277;51.626;7.516;2023-04-25T13:29:33;1.80;;;1.10;;
4529;SDS011;2277;51.626;7.516;2023-04-25T13:32:00;1.40;;;1.00;;
4529;SDS011;2277;51.626;7.516;2023-04-25T13:34:29;1.80;;;1.27;;
4529;SDS011;2277;51.626;7.516;2023-04-25T13:36:55;1.73;;;1.17;;
4529;SDS011;2277;51.626;7.516;2023-04-25T13:39:21;1.87;;;0.90;;
4529;SDS011;2277;51.626;7.516;2023-04-25T13:41:47;2.03;;;1.30;;
4529;SDS011;2277;51.626;7.516;2023-04-25T13:44:12;1.10;;;1.00;;
4529;SDS011;2277;51.626;7.516;2023-04-25T13:46:38;1.00;;;0.60;;
4529;SDS011;2277;51.626;7.516;2023-04-25T13:49:04;1.03;;;0.73;;
4529;SDS011;2277;51.626;7.516;2023-04-25T13:51:30;1.50;;;1.10;;
4529;SDS011;2277;51.626;7.516;2023-04-25T13:53:56;1.13;;;1.00;;
4529;SDS011;2277;51.626;7.516;2023-04-25T13:56:22;1.03;;;0.70;;
4529;SDS011;2277;51.626;7.516;2023-04-25T13:58:48;1.00;;;0.70;;
4529;SDS011;2277;51.626;7.516;2023-04-25T14:01:17;2.03;;;0.93;;
4529;SDS011;2277;51.626;7.516;2023-04-25T14:03:43;4.30;;;1.10;;
4529;SDS011;2277;51.626;7.516;2023-04-25T14:06:10;1.33;;;0.90;;
4529;SDS011;2277;51.626;7.516;2023-04-25T14:08:37;1.63;;;1.10;;
4529;SDS011;2277;51.626;7.516;2023-04-25T14:11:03;3.30;;;1.97;;
4529;SDS011;2277;51.626;7.516;2023-04-25T14:13:28;1.10;;;0.80;;
4529;SDS011;2277;51.626;7.516;2023-04-25T14:15:54;1.47;;;1.00;;
4529;SDS011;2277;51.626;7.516;2023-04-25T14:18:20;1.40;;;1.00;;
4529;SDS011;2277;51.626;7.516;2023-04-25T14:20:46;1.90;;;1.33;;
4529;SDS011;2277;51.626;7.516;2023-04-25T14:23:12;3.63;;;1.00;;
4529;SDS011;2277;51.626;7.516;2023-04-25T14:25:37;1.10;;;0.83;;
4529;SDS011;2277;51.626;7.516;2023-04-25T14:28:03;2.57;;;1.30;;
4529;SDS011;2277;51.626;7.516;2023-04-25T14:30:29;4.03;;;1.30;;
4529;SDS011;2277;51.626;7.516;2023-04-25T14:32:54;1.20;;;0.90;;
4529;SDS011;2277;51.626;7.516;2023-04-25T14:35:20;2.37;;;1.30;;
4529;SDS011;2277;51.626;7.516;2023-04-25T14:37:46;1.30;;;1.17;;
4529;SDS011;2277;51.626;7.516;2023-04-25T14:40:12;2.17;;;1.90;;
4529;SDS011;2277;51.626;7.516;2023-04-25T14:42:40;1.50;;;0.90;;
4529;SDS011;2277;51.626;7.516;2023-04-25T14:45:06;1.40;;;0.90;;
4529;SDS011;2277;51.626;7.516;2023-04-25T14:47:33;2.30;;;2.10;;
4529;SDS011;2277;51.626;7.516;2023-04-25T14:50:00;3.40;;;1.13;;
4529;SDS011;2277;51.626;7.516;2023-04-25T14:52:26;1.57;;;1.00;;
4529;SDS011;2277;51.626;7.516;2023-04-25T14:54:52;3.47;;;1.37;;
4529;SDS011;2277;51.626;7.516;2023-04-25T14:57:18;1.93;;;0.97;;
4529;SDS011;2277;51.626;7.516;2023-04-25T14:59:43;1.50;;;0.90;;
4529;SDS011;2277;51.626;7.516;2023-04-25T15:02:10;1.30;;;1.20;;
4529;SDS011;2277;51.626;7.516;2023-04-25T15:04:36;1.23;;;1.13;;
4529;SDS011;2277;51.626;7.516;2023-04-25T15:07:01;1.53;;;1.00;;
4529;SDS011;2277;51.626;7.516;2023-04-25T15:09:27;2.50;;;1.50;;
4529;SDS011;2277;51.626;7.516;2023-04-25T15:11:53;1.27;;;1.00;;
4529;SDS011;2277;51.626;7.516;2023-04-25T15:14:19;1.77;;;1.53;;
4529;SDS011;2277;51.626;7.516;2023-04-25T15:16:44;2.50;;;1.57;;
4529;SDS011;2277;51.626;7.516;2023-04-25T15:19:10;2.03;;;1.13;;
4529;SDS011;2277;51.626;7.516;2023-04-25T15:21:36;1.97;;;0.90;;
4529;SDS011;2277;51.626;7.516;2023-04-25T15:24:02;3.33;;;1.00;;
4529;SDS011;2277;51.626;7.516;2023-04-25T15:26:27;1.63;;;1.23;;
4529;SDS011;2277;51.626;7.516;2023-04-25T15:28:53;2.30;;;1.43;;